Time;durP1;ratioP1;P1;durP2;ratioP2;P2;SDS_P1;SDS_P2;PMS_P1;PMS_P2;Temp;Humidity;BMP_temperature;BMP_pressure;BME280_temperature;BME280_humidity;BME280_pressure;Samples;Min_cycle;Max_cycle;Signal;HPM_P1;HPM_P2
2021/10/25 00:00:54;;;;;;;4.45;1.38;;;;;;;6.08;79.26;101416.84;4919550;29;20394;-87
2021/10/25 00:03:21;;;;;;;3.22;1.25;;;;;;;6.15;78.76;101417.84;4918690;29;20122;-86
2021/10/25 00:05:48;;;;;;;3.50;1.50;;;;;;;6.15;78.63;101413.50;4920260;29;20076;-86
2021/10/25 00:08:14;;;;;;;3.70;1.20;;;;;;;6.16;78.30;101404.88;4904406;29;20051;-86
2021/10/25 00:10:45;;;;;;;1.83;1.73;;;;;;;6.15;77.81;101413.50;4906418;29;20050;-86
2021/10/25 00:13:12;;;;;;;2.70;1.60;;;;;;;6.12;78.07;101405.66;4916557;29;20063;-86
2021/10/25 00:15:39;;;;;;;3.55;1.40;;;;;;;6.07;78.19;101412.47;4920454;28;20044;-86
2021/10/25 00:18:06;;;;;;;4.50;1.88;;;;;;;6.07;77.93;101397.75;4920813;29;20668;-86
2021/10/25 00:20:34;;;;;;;9.95;1.67;;;;;;;6.12;77.72;101410.84;4922370;29;20641;-86
2021/10/25 00:23:03;;;;;;;2.58;1.38;;;;;;;6.08;77.97;101412.50;4916483;29;20055;-86
2021/10/25 00:25:30;;;;;;;2.53;1.13;;;;;;;6.04;77.81;101415.88;4920244;29;20122;-86
2021/10/25 00:27:57;;;;;;;2.65;1.95;;;;;;;6.02;77.88;101414.97;4906626;29;20058;-86
2021/10/25 00:30:24;;;;;;;2.95;1.38;;;;;;;5.98;78.14;101407.94;4922497;29;20048;-87
2021/10/25 00:32:50;;;;;;;1.63;1.52;;;;;;;5.96;78.24;101407.88;4917772;29;20751;-86
2021/10/25 00:35:17;;;;;;;3.55;1.83;;;;;;;5.91;78.62;101404.28;4916892;29;20055;-86
2021/10/25 00:37:44;;;;;;;4.22;1.45;;;;;;;5.82;79.17;101409.28;4920787;29;20044;-87
2021/10/25 00:40:11;;;;;;;1.63;1.13;;;;;;;5.67;79.49;101406.34;4931669;29;20735;-86
2021/10/25 00:42:37;;;;;;;2.28;1.92;;;;;;;5.54;80.57;101411.25;4916818;29;20051;-86
2021/10/25 00:45:05;;;;;;;3.67;2.45;;;;;;;5.45;81.17;101413.63;4902743;29;20059;-86
2021/10/25 00:47:31;;;;;;;1.83;1.30;;;;;;;5.38;81.77;101416.91;4914722;29;20047;-86
2021/10/25 00:49:58;;;;;;;2.05;1.80;;;;;;;5.32;82.13;101414.16;4920245;29;20625;-87
2021/10/25 00:52:25;;;;;;;4.68;1.77;;;;;;;5.28;82.57;101415.81;4907233;29;20135;-86
2021/10/25 00:54:52;;;;;;;2.90;1.35;;;;;;;5.25;82.60;101413.13;4904677;29;20173;-86
2021/10/25 00:57:24;;;;;;;1.60;1.20;;;;;;;5.22;82.83;101413.94;4937700;29;20446;-87
2021/10/25 00:59:51;;;;;;;1.77;1.27;;;;;;;5.16;83.55;101405.97;4925450;29;20044;-86
2021/10/25 01:02:18;;;;;;;3.70;1.10;;;;;;;5.11;83.60;101405.88;4933636;29;20051;-86
2021/10/25 01:04:45;;;;;;;2.90;1.42;;;;;;;5.05;83.60;101407.44;4920040;29;20059;-86
2021/10/25 01:07:14;;;;;;;1.40;1.30;;;;;;;5.05;84.59;101413.50;4921751;29;20088;-86
2021/10/25 01:09:42;;;;;;;5.05;1.42;;;;;;;5.04;84.11;101398.75;4921793;29;20051;-86
2021/10/25 01:12:10;;;;;;;3.92;1.73;;;;;;;5.01;84.27;101397.81;4922602;29;20166;-86
2021/10/25 01:14:37;;;;;;;1.70;1.42;;;;;;;4.99;84.70;101402.94;4919819;29;20587;-86
2021/10/25 01:17:04;;;;;;;2.22;1.42;;;;;;;5.00;84.71;101406.44;4919065;29;20414;-86
2021/10/25 01:19:32;;;;;;;6.47;2.15;;;;;;;4.98;84.71;101403.81;4923939;29;20513;-86
2021/10/25 01:21:59;;;;;;;3.33;1.33;;;;;;;4.99;85.06;101407.28;4918749;29;20059;-86
2021/10/25 01:24:26;;;;;;;5.88;1.75;;;;;;;5.02;84.71;101408.25;4904490;29;20418;-86
2021/10/25 01:26:55;;;;;;;3.28;1.35;;;;;;;4.99;84.72;101409.88;4923370;29;20073;-86
2021/10/25 01:29:22;;;;;;;2.08;1.60;;;;;;;4.99;84.70;101405.53;4911358;29;20456;-86
2021/10/25 01:31:49;;;;;;;2.03;1.23;;;;;;;5.00;84.83;101402.13;4920190;29;20054;-86
2021/10/25 01:34:16;;;;;;;2.95;2.10;;;;;;;5.00;84.71;101398.66;4904347;29;20479;-86
2021/10/25 01:36:43;;;;;;;5.40;1.95;;;;;;;4.97;84.78;101402.91;4906406;29;20079;-86
2021/10/25 01:39:11;;;;;;;3.75;1.55;;;;;;;4.92;85.08;101399.31;4905866;29;20079;-86
2021/10/25 01:41:37;;;;;;;1.55;1.30;;;;;;;4.93;85.02;101400.22;4923634;29;20139;-86
2021/10/25 01:44:13;;;;;;;1.60;1.42;;;;;;;4.91;84.99;101391.50;4919307;29;20052;-86
2021/10/25 01:46:43;;;;;;;1.65;1.40;;;;;;;4.89;85.44;101390.56;4918146;29;20052;-86
2021/10/25 01:49:10;;;;;;;1.73;1.63;;;;;;;4.97;85.41;101391.66;4922873;29;20043;-86
2021/10/25 01:51:36;;;;;;;16.02;3.58;;;;;;;5.02;85.11;101392.66;4905927;29;20146;-86
2021/10/25 01:54:04;;;;;;;3.72;2.28;;;;;;;5.03;84.95;101391.84;4936671;28;20058;-86
2021/10/25 01:56:31;;;;;;;3.47;1.85;;;;;;;4.99;84.70;101386.50;4903315;29;20672;-86
2021/10/25 01:58:58;;;;;;;2.83;1.40;;;;;;;4.93;85.13;101398.50;4921040;29;20063;-86
2021/10/25 02:01:25;;;;;;;2.08;1.38;;;;;;;4.88;85.62;101394.03;4920633;29;20083;-87
2021/10/25 02:03:52;;;;;;;4.57;2.08;;;;;;;4.79;85.59;101390.34;4916291;29;20059;-86
2021/10/25 02:06:19;;;;;;;3.85;1.55;;;;;;;4.73;86.72;101390.19;4923026;29;20448;-86
2021/10/25 02:08:47;;;;;;;5.82;1.58;;;;;;;4.66;86.39;101387.38;4920892;29;20052;-86
2021/10/25 02:11:16;;;;;;;1.95;1.63;;;;;;;4.60;86.83;101388.97;4922005;29;20138;-86
2021/10/25 02:13:45;;;;;;;2.83;1.92;;;;;;;4.60;87.06;101390.66;4905641;29;20044;-86
2021/10/25 02:16:12;;;;;;;2.30;1.60;;;;;;;4.57;87.03;101388.88;4918864;29;20512;-85
2021/10/25 02:18:39;;;;;;;3.15;1.50;;;;;;;4.59;87.06;101383.75;4921280;29;20047;-86
2021/10/25 02:21:07;;;;;;;1.65;1.35;;;;;;;4.60;87.30;101382.91;4918976;29;20058;-86
2021/10/25 02:23:36;;;;;;;2.03;1.70;;;;;;;4.62;87.53;101376.91;4903852;29;20135;-85
2021/10/25 02:26:03;;;;;;;5.05;2.20;;;;;;;4.62;87.30;101378.63;4916628;29;20055;-85
2021/10/25 02:28:30;;;;;;;3.30;1.60;;;;;;;4.62;87.33;101376.06;4905886;29;20055;-86
2021/10/25 02:30:57;;;;;;;3.38;1.90;;;;;;;4.62;87.41;101371.72;4907329;29;20047;-86
2021/10/25 02:33:24;;;;;;;3.40;2.33;;;;;;;4.62;87.33;101368.28;4902445;29;20051;-85
2021/10/25 02:35:52;;;;;;;3.20;1.48;;;;;;;4.61;87.13;101369.97;4921425;29;20060;-86
2021/10/25 02:38:19;;;;;;;3.97;1.77;;;;;;;4.58;87.43;101366.44;4904024;29;20050;-86
2021/10/25 02:40:47;;;;;;;8.00;2.30;;;;;;;4.56;87.62;101363.81;4931481;29;20394;-86
2021/10/25 02:43:13;;;;;;;2.47;2.25;;;;;;;4.56;88.19;101360.31;4936469;28;20864;-86
2021/10/25 02:45:40;;;;;;;3.85;2.35;;;;;;;4.55;87.81;101366.31;4903326;29;20058;-86
2021/10/25 02:48:07;;;;;;;3.17;1.50;;;;;;;4.53;87.63;101368.03;4906454;29;20063;-86
2021/10/25 02:50:34;;;;;;;2.58;1.58;;;;;;;4.50;88.02;101368.81;4905272;29;20052;-86
2021/10/25 02:53:01;;;;;;;3.38;1.75;;;;;;;4.43;88.22;101360.00;4905480;29;20198;-86
2021/10/25 02:55:28;;;;;;;2.92;1.90;;;;;;;4.40;88.61;101357.31;4919971;29;20134;-86
2021/10/25 02:57:55;;;;;;;3.85;2.17;;;;;;;4.40;88.58;101361.63;4919341;29;20059;-86
2021/10/25 03:00:22;;;;;;;4.55;2.00;;;;;;;4.37;88.77;101356.31;4905748;29;20055;-86
2021/10/25 03:02:48;;;;;;;2.95;1.73;;;;;;;4.36;88.88;101360.66;4916285;29;20044;-85
2021/10/25 03:05:15;;;;;;;2.25;1.75;;;;;;;4.33;89.46;101360.56;4921544;29;20047;-86
2021/10/25 03:07:43;;;;;;;1.95;1.73;;;;;;;4.34;89.60;101359.75;4902174;29;20118;-86
2021/10/25 03:10:09;;;;;;;5.55;1.95;;;;;;;4.32;89.73;101358.81;4922017;29;20055;-86
2021/10/25 03:12:37;;;;;;;4.72;1.98;;;;;;;4.30;89.26;101357.88;4919879;29;20468;-86
2021/10/25 03:15:06;;;;;;;2.20;1.70;;;;;;;4.28;89.45;101356.97;4917106;29;20055;-86
2021/10/25 03:17:32;;;;;;;2.42;1.98;;;;;;;4.27;89.81;101350.03;4903556;29;20138;-87
2021/10/25 03:20:01;;;;;;;3.22;1.90;;;;;;;4.30;90.04;101348.41;4920558;29;20082;-86
2021/10/25 03:22:28;;;;;;;5.10;2.28;;;;;;;4.28;89.85;101351.78;4920248;29;20209;-86
2021/10/25 03:24:55;;;;;;;3.03;2.40;;;;;;;4.24;89.91;101344.78;4931386;28;21098;-86
2021/10/25 03:27:22;;;;;;;1.60;1.50;;;;;;;4.21;90.10;101342.97;4906651;29;20260;-86
2021/10/25 03:29:48;;;;;;;6.25;2.40;;;;;;;4.17;90.44;101348.88;4903460;29;20535;-86
2021/10/25 03:32:15;;;;;;;5.40;2.97;;;;;;;4.14;90.65;101343.63;4919221;29;20075;-86
2021/10/25 03:34:42;;;;;;;4.15;2.40;;;;;;;4.12;90.88;101337.53;4904824;29;20055;-86
2021/10/25 03:37:09;;;;;;;2.60;2.40;;;;;;;4.10;91.34;101334.88;4902547;29;20099;-86
2021/10/25 03:39:38;;;;;;;4.30;2.38;;;;;;;4.10;91.26;101339.19;4921114;29;20135;-85
2021/10/25 03:42:10;;;;;;;3.97;2.13;;;;;;;4.10;91.37;101341.78;4933893;29;21406;-86
2021/10/25 03:44:43;;;;;;;2.85;2.33;;;;;;;4.09;91.52;101340.91;4918664;29;20047;-86
2021/10/25 03:47:15;;;;;;;3.38;2.33;;;;;;;4.09;91.82;101340.00;4917854;29;20143;-86
2021/10/25 03:49:45;;;;;;;2.50;2.30;;;;;;;4.07;91.86;101342.56;4920655;29;20082;-86
2021/10/25 03:52:21;;;;;;;3.90;2.00;;;;;;;4.05;91.44;101344.22;4920546;29;20047;-87
2021/10/25 03:54:55;;;;;;;3.35;2.13;;;;;;;4.08;91.54;101338.25;4916405;29;20051;-86
2021/10/25 04:00:28;;;;;;;3.33;2.28;;;;;;;4.06;91.86;101334.75;4919276;29;20983;-86
2021/10/25 04:25:16;;;;;;;2.75;1.70;;;;;;;4.01;92.57;101338.91;4902921;29;20066;-86
2021/10/25 04:25:46;;;;;;;3.53;2.20;;;;;;;3.77;93.33;101348.59;4875774;29;20046;-86
2021/10/25 04:28:15;;;;;;;5.18;2.13;;;;;;;3.76;94.05;101343.38;4893378;29;20056;-85
2021/10/25 04:30:42;;;;;;;3.67;2.65;;;;;;;3.78;93.64;101345.19;4904842;28;20435;-86
2021/10/25 04:33:09;;;;;;;4.10;2.58;;;;;;;3.79;94.39;101336.59;4937279;28;20397;-85
2021/10/25 04:35:36;;;;;;;4.28;2.50;;;;;;;3.79;93.94;101338.28;4915750;29;20067;-86
2021/10/25 04:38:02;;;;;;;5.32;2.60;;;;;;;3.82;94.26;101333.22;4891715;29;20513;-86
2021/10/25 04:40:29;;;;;;;2.38;2.17;;;;;;;3.81;93.90;101334.03;4902605;29;20494;-86
2021/10/25 04:42:58;;;;;;;2.60;1.90;;;;;;;3.80;94.00;101329.69;4906145;29;20804;-86
2021/10/25 04:45:25;;;;;;;3.65;2.72;;;;;;;3.76;94.34;101331.28;4889542;29;20047;-85
2021/10/25 04:47:54;;;;;;;3.58;2.65;;;;;;;3.76;94.69;101333.88;4895445;29;20053;-86
2021/10/25 04:50:22;;;;;;;3.47;2.20;;;;;;;3.77;94.74;101329.59;4870305;29;20060;-86
2021/10/25 04:52:49;;;;;;;4.10;2.40;;;;;;;3.75;94.52;101326.94;4867188;29;22598;-86
2021/10/25 04:55:16;;;;;;;3.58;2.67;;;;;;;3.74;94.93;101325.22;4915949;29;20044;-86
2021/10/25 04:57:43;;;;;;;5.75;2.30;;;;;;;3.74;95.24;101327.81;4881708;29;20044;-85
2021/10/25 05:00:10;;;;;;;3.72;2.45;;;;;;;3.74;95.24;101324.31;4869251;29;20056;-85
2021/10/25 05:02:37;;;;;;;5.50;3.47;;;;;;;3.75;95.45;101320.91;4868953;29;20053;-86
2021/10/25 05:05:05;;;;;;;4.28;2.60;;;;;;;3.76;95.53;101320.94;4866543;29;20452;-85
2021/10/25 05:07:33;;;;;;;2.80;2.58;;;;;;;3.77;95.21;101327.00;4897952;29;20040;-85
2021/10/25 05:10:02;;;;;;;4.18;2.55;;;;;;;3.75;95.28;101313.13;4895185;29;20059;-85
2021/10/25 05:12:29;;;;;;;3.78;2.70;;;;;;;3.74;95.91;101313.94;4894070;29;20055;-85
2021/10/25 05:14:56;;;;;;;5.75;2.63;;;;;;;3.76;95.65;101314.88;4919315;29;20052;-85
2021/10/25 05:17:24;;;;;;;3.72;3.08;;;;;;;3.77;95.47;101309.75;4907675;29;20117;-86
2021/10/25 05:19:51;;;;;;;3.55;2.53;;;;;;;3.78;95.45;101311.50;4919558;29;20056;-86
2021/10/25 05:22:20;;;;;;;2.85;2.60;;;;;;;3.77;95.57;101304.56;4917447;29;20154;-85
2021/10/25 05:24:49;;;;;;;5.15;3.42;;;;;;;3.77;95.37;101304.56;4905933;29;20044;-86
2021/10/25 05:27:18;;;;;;;4.72;2.50;;;;;;;3.74;95.70;101306.19;4918233;29;20055;-87
2021/10/25 05:29:45;;;;;;;7.72;2.28;;;;;;;3.71;96.02;101306.09;4904433;29;20055;-86
2021/10/25 05:32:13;;;;;;;2.90;2.70;;;;;;;3.71;96.35;101306.09;4903745;29;20539;-86
2021/10/25 05:34:40;;;;;;;4.20;3.15;;;;;;;3.67;95.99;101304.25;4915145;29;20045;-86
2021/10/25 05:37:08;;;;;;;3.00;2.60;;;;;;;3.64;96.52;101305.06;4904545;29;20060;-87
2021/10/25 05:39:34;;;;;;;6.95;3.67;;;;;;;3.63;96.75;101306.75;4901624;29;20052;-86
2021/10/25 05:42:05;;;;;;;3.15;2.40;;;;;;;3.58;97.07;101300.53;4904237;29;21050;-86
2021/10/25 05:44:35;;;;;;;4.32;2.92;;;;;;;3.54;96.78;101301.28;4907105;29;20987;-86
2021/10/25 05:47:02;;;;;;;7.72;2.65;;;;;;;3.53;97.10;101298.66;4915904;29;20114;-86
2021/10/25 05:49:28;;;;;;;5.15;2.92;;;;;;;3.53;97.46;101302.13;4936106;29;20047;-86
2021/10/25 05:51:56;;;;;;;4.03;2.92;;;;;;;3.53;97.61;101301.25;4919017;29;20438;-86
2021/10/25 05:54:22;;;;;;;6.32;2.42;;;;;;;3.51;97.57;101301.22;4907693;29;20058;-86
2021/10/25 05:56:51;;;;;;;4.47;3.20;;;;;;;3.51;97.36;101303.78;4920478;29;20475;-85
2021/10/25 05:59:22;;;;;;;5.28;3.10;;;;;;;3.50;97.43;101304.63;4905694;29;20055;-85
2021/10/25 06:01:57;;;;;;;3.35;2.78;;;;;;;3.48;97.10;101314.03;4924529;29;20047;-86
2021/10/25 06:04:25;;;;;;;6.05;3.08;;;;;;;3.47;97.79;101301.94;4921375;29;20065;-86
2021/10/25 06:06:52;;;;;;;5.60;3.08;;;;;;;3.48;98.04;101309.75;4910964;29;20119;-86
2021/10/25 06:09:20;;;;;;;7.15;3.35;;;;;;;3.47;98.11;101310.59;4905235;29;20617;-86
2021/10/25 06:11:49;;;;;;;11.45;5.68;;;;;;;3.47;98.22;101302.81;4908616;29;20132;-86
2021/10/25 06:14:25;;;;;;;5.22;3.47;;;;;;;3.48;97.80;101303.69;4907616;29;20048;-86
2021/10/25 06:16:57;;;;;;;4.72;2.92;;;;;;;3.48;98.08;101302.00;4935806;28;20052;-86
2021/10/25 06:19:24;;;;;;;4.70;3.50;;;;;;;3.49;98.29;101300.28;4926627;29;20043;-86
2021/10/25 06:21:50;;;;;;;6.15;3.30;;;;;;;3.48;98.19;101296.81;4916560;29;20035;-86
2021/10/25 06:24:17;;;;;;;6.15;3.30;;;;;;;3.50;98.10;101301.16;4905511;29;20162;-86
2021/10/25 06:26:44;;;;;;;7.03;4.32;;;;;;;3.52;98.06;101302.06;4905090;29;20040;-86
2021/10/25 06:29:11;;;;;;;12.63;4.35;;;;;;;3.53;98.25;101299.53;4908755;29;20048;-85
2021/10/25 06:31:37;;;;;;;5.25;2.90;;;;;;;3.56;97.86;101297.06;4909635;29;20233;-86
2021/10/25 06:34:08;;;;;;;5.65;3.42;;;;;;;3.58;97.74;101302.28;4906119;29;20797;-86
2021/10/25 06:36:36;;;;;;;5.68;2.80;;;;;;;3.60;97.89;101298.91;4923437;29;20485;-86
2021/10/25 06:39:11;;;;;;;7.40;3.35;;;;;;;3.64;97.94;101303.31;4920903;29;20052;-86
2021/10/25 06:41:38;;;;;;;6.90;3.38;;;;;;;3.67;97.42;101299.09;4909152;29;20134;-86
2021/10/25 06:44:06;;;;;;;9.48;3.67;;;;;;;3.70;97.14;101297.44;4922629;29;20131;-86
2021/10/25 06:46:33;;;;;;;6.97;3.42;;;;;;;3.75;97.60;101302.78;4906174;29;20514;-85
2021/10/25 06:49:01;;;;;;;9.32;4.28;;;;;;;3.80;96.97;101301.19;4907832;29;20048;-86
2021/10/25 06:51:27;;;;;;;8.20;5.07;;;;;;;3.88;97.30;101301.41;4905116;29;20048;-86
2021/10/25 06:53:54;;;;;;;4.25;3.47;;;;;;;3.98;96.67;101306.91;4921150;29;20056;-86
2021/10/25 06:56:20;;;;;;;4.68;3.50;;;;;;;4.08;96.09;101310.63;4904612;29;20067;-86
2021/10/25 06:58:47;;;;;;;5.93;4.30;;;;;;;4.20;95.36;101302.34;4907455;29;20058;-86
2021/10/25 07:01:16;;;;;;;8.73;3.88;;;;;;;4.34;94.81;101307.00;4921842;29;20063;-86
2021/10/25 07:03:43;;;;;;;5.25;2.70;;;;;;;4.46;94.24;101312.53;4919948;29;20099;-86
2021/10/25 07:06:14;;;;;;;7.05;3.08;;;;;;;4.64;94.08;101306.94;4922252;29;20055;-86
2021/10/25 07:08:41;;;;;;;7.00;3.25;;;;;;;4.83;92.87;101310.03;4927644;29;21184;-86
2021/10/25 07:11:09;;;;;;;5.03;3.20;;;;;;;4.93;91.77;101312.00;4911623;29;20052;-86
2021/10/25 07:13:37;;;;;;;8.07;4.13;;;;;;;5.02;91.35;101312.22;4929191;29;20052;-86
2021/10/25 07:16:11;;;;;;;5.50;3.63;;;;;;;5.10;91.27;101315.88;4930453;29;20048;-86
2021/10/25 07:18:43;;;;;;;4.43;3.30;;;;;;;5.17;90.57;101301.31;4928624;29;20059;-86
2021/10/25 07:27:12;;;;;;;4.80;3.70;;;;;;;5.33;89.70;101312.94;4908625;29;20047;-86
2021/10/25 08:08:04;;;;;;;6.13;3.88;;;;;;;6.10;87.93;101305.94;4933449;28;20110;-86
2021/10/25 08:10:36;;;;;;;4.65;3.45;;;;;;;6.26;87.36;101300.22;4909764;29;20518;-85
2021/10/25 08:13:10;;;;;;;3.72;3.42;;;;;;;6.43;86.30;101297.06;4903130;29;20052;-86
2021/10/25 08:15:39;;;;;;;5.30;3.47;;;;;;;6.62;84.39;101300.84;4934350;29;20048;-86
2021/10/25 08:18:13;;;;;;;6.30;3.35;;;;;;;6.79;84.05;101294.25;4902779;29;20062;-86
2021/10/25 08:20:40;;;;;;;;;;;;;;;6.95;82.12;101290.16;4923180;29;20582;-85
2021/10/25 08:23:06;;;;;;;6.43;4.57;;;;;;;7.10;81.59;101294.75;4920872;29;20017;-85
2021/10/25 08:25:33;;;;;;;4.30;3.15;;;;;;;7.25;81.37;101301.03;4919145;29;21327;-85
2021/10/25 08:28:03;;;;;;;4.53;4.05;;;;;;;7.36;81.22;101295.97;4920992;29;20103;-85
2021/10/25 08:30:29;;;;;;;4.93;3.65;;;;;;;7.49;80.53;101297.03;4904181;29;20579;-86
2021/10/25 08:33:08;;;;;;;3.08;2.88;;;;;;;7.62;80.50;101293.72;4914353;29;20062;-86
2021/10/25 08:41:06;;;;;;;5.60;3.05;;;;;;;7.94;79.16;101303.72;4921490;28;20688;-86
2021/10/25 08:43:36;;;;;;;3.20;2.88;;;;;;;7.97;79.07;101300.28;4923033;29;20704;-86
2021/10/25 08:46:07;;;;;;;6.03;3.83;;;;;;;8.03;78.71;101303.81;4907074;29;20040;-86
2021/10/25 08:48:36;;;;;;;8.10;3.80;;;;;;;8.07;77.34;101308.22;4905624;29;20126;-85
2021/10/25 08:51:03;;;;;;;6.25;4.13;;;;;;;8.08;77.99;101309.06;4922129;29;20051;-86
2021/10/25 08:53:29;;;;;;;4.63;2.83;;;;;;;8.07;77.93;101307.31;4918228;29;20048;-86
2021/10/25 08:55:56;;;;;;;6.68;4.88;;;;;;;8.08;78.46;101311.69;4903349;29;20052;-85
2021/10/25 08:58:23;;;;;;;8.02;3.92;;;;;;;8.16;77.06;101317.88;4917776;29;20110;-85
2021/10/25 09:00:56;;;;;;;3.67;3.08;;;;;;;8.19;77.65;101315.31;4903257;29;20209;-85
2021/10/25 09:03:22;;;;;;;7.43;4.88;;;;;;;8.26;75.92;101311.03;4920735;29;20054;-86
2021/10/25 09:06:01;;;;;;;5.45;3.97;;;;;;;8.37;76.36;101312.03;4903824;29;20071;-85
2021/10/25 09:08:29;;;;;;;4.35;3.53;;;;;;;8.46;76.12;101313.91;4923081;29;21038;-85
2021/10/25 09:10:56;;;;;;;5.35;3.75;;;;;;;8.55;76.29;101319.22;4903318;29;20048;-86
2021/10/25 09:13:26;;;;;;;4.65;3.70;;;;;;;8.66;75.61;101327.13;4919809;29;20060;-86
2021/10/25 09:16:03;;;;;;;3.80;3.50;;;;;;;8.72;75.29;101321.97;4920524;29;20075;-86
2021/10/25 09:18:33;;;;;;;8.93;6.07;;;;;;;8.78;75.19;101318.53;4909880;29;20848;-86
2021/10/25 09:21:05;;;;;;;6.22;4.30;;;;;;;8.83;74.48;101311.63;4925086;29;20063;-86
2021/10/25 09:23:41;;;;;;;4.07;2.80;;;;;;;8.82;75.49;101316.84;4912205;29;20059;-86
2021/10/25 09:26:16;;;;;;;7.28;3.63;;;;;;;8.80;75.01;101308.09;4923182;29;20554;-85
2021/10/25 09:28:51;;;;;;;6.60;3.70;;;;;;;8.78;75.40;101302.88;4923332;29;20048;-86
2021/10/25 09:31:23;;;;;;;5.43;3.05;;;;;;;8.74;75.48;101301.97;4908669;29;20130;-86
2021/10/25 09:34:16;;;;;;;5.60;3.88;;;;;;;8.74;76.08;101304.59;4921658;29;20051;-86
2021/10/25 09:36:49;;;;;;;4.35;3.55;;;;;;;8.73;76.20;101297.59;4924737;29;20059;-86
2021/10/25 09:39:24;;;;;;;5.18;3.63;;;;;;;8.76;76.59;101299.38;4940008;29;20051;-86
2021/10/25 09:42:12;;;;;;;5.03;4.38;;;;;;;8.76;76.39;101296.75;4907562;29;20133;-86
2021/10/25 09:50:11;;;;;;;5.82;3.92;;;;;;;8.76;77.43;101301.97;4924705;29;20044;-86
2021/10/25 09:52:41;;;;;;;3.08;2.80;;;;;;;8.78;77.59;101292.44;4923101;29;20630;-86
2021/10/25 09:55:20;;;;;;;6.97;4.32;;;;;;;8.79;77.63;101294.19;4923101;29;20559;-86
2021/10/25 09:57:58;;;;;;;4.30;3.58;;;;;;;8.78;77.93;101297.66;4909166;29;20494;-85
2021/10/25 10:00:25;;;;;;;9.27;3.85;;;;;;;8.77;78.21;101302.03;4909082;28;20586;-86
2021/10/25 10:02:51;;;;;;;4.18;3.53;;;;;;;8.76;78.54;101300.25;4920923;29;20134;-86
2021/10/25 10:05:22;;;;;;;4.63;3.47;;;;;;;8.76;78.78;101292.44;4923112;29;20087;-86
2021/10/25 10:07:52;;;;;;;5.70;4.15;;;;;;;8.77;78.61;101286.34;4922508;29;20419;-86
2021/10/25 10:10:21;;;;;;;7.55;4.45;;;;;;;8.85;78.86;101285.53;4907163;29;20043;-85
2021/10/25 10:12:49;;;;;;;7.18;4.30;;;;;;;8.95;78.38;101284.75;4921942;29;20566;-86
2021/10/25 10:15:16;;;;;;;5.72;3.50;;;;;;;9.06;77.91;101280.50;4920524;29;20059;-85
2021/10/25 10:17:52;;;;;;;5.80;2.92;;;;;;;9.16;77.61;101270.97;4924848;29;20052;-86
2021/10/25 10:20:30;;;;;;;5.55;3.05;;;;;;;9.27;77.33;101276.28;4927845;29;20511;-86
2021/10/25 10:23:04;;;;;;;6.03;3.40;;;;;;;9.37;76.87;101271.97;4923967;29;20143;-86
2021/10/25 10:25:33;;;;;;;;;;;;;;;9.48;76.29;101272.03;4914088;29;20126;-86
2021/10/25 10:28:14;;;;;;;4.55;3.15;;;;;;;9.63;75.78;101271.25;4937189;28;19931;-87
2021/10/25 10:30:56;;;;;;;9.50;4.05;;;;;;;9.91;75.12;101265.25;4910599;29;20067;-86
2021/10/25 10:33:41;;;;;;;8.13;2.83;;;;;;;10.29;73.73;101271.47;4920742;29;20688;-86
2021/10/25 10:36:22;;;;;;;5.90;3.00;;;;;;;10.59;72.42;101260.19;4922795;29;20523;-86
2021/10/25 10:39:13;;;;;;;7.63;2.97;;;;;;;10.78;71.26;101268.09;4925471;29;20515;-87
2021/10/25 10:41:58;;;;;;;4.28;2.88;;;;;;;10.83;71.15;101268.06;4909524;29;20451;-87
2021/10/25 10:44:28;;;;;;;5.85;4.13;;;;;;;10.82;71.02;101268.94;4907944;29;20047;-87
2021/10/25 10:47:06;;;;;;;3.80;2.13;;;;;;;10.82;71.56;101269.81;4909928;29;20048;-87
2021/10/25 10:49:44;;;;;;;3.25;3.00;;;;;;;10.88;71.22;101269.81;4926968;29;20039;-88
2021/10/25 10:52:30;;;;;;;1.92;1.83;;;;;;;10.99;71.59;101261.06;4921067;29;20725;-87
2021/10/25 10:55:26;;;;;;;4.38;3.83;;;;;;;11.15;71.26;101259.31;4922456;29;20054;-87
2021/10/25 10:58:27;;;;;;;6.72;3.00;;;;;;;11.34;70.78;101263.66;4905492;29;20451;-86
2021/10/25 11:01:14;;;;;;;5.32;3.10;;;;;;;11.52;68.37;101261.84;4920280;29;20087;-85
2021/10/25 11:03:41;;;;;;;6.95;2.70;;;;;;;11.74;68.18;101260.88;4901359;29;20040;-85
2021/10/25 11:06:17;;;;;;;5.63;3.08;;;;;;;11.97;67.76;101253.81;4920374;29;20090;-86
2021/10/25 11:08:48;;;;;;;5.30;2.95;;;;;;;12.17;66.65;101266.84;4935723;28;20043;-85
2021/10/25 11:11:22;;;;;;;7.60;3.03;;;;;;;12.13;65.36;101259.88;4921534;29;20051;-85
2021/10/25 11:14:01;;;;;;;4.47;2.70;;;;;;;12.06;65.19;101259.03;4933139;28;20052;-86
2021/10/25 11:16:39;;;;;;;3.35;2.30;;;;;;;12.01;65.83;101269.56;4913958;29;20062;-85
2021/10/25 11:19:07;;;;;;;4.07;2.65;;;;;;;12.10;66.12;101265.13;4923741;29;20048;-85
2021/10/25 11:21:37;;;;;;;4.57;2.85;;;;;;;12.08;65.97;101273.00;4943173;28;20083;-85
2021/10/25 11:24:13;;;;;;;8.02;2.72;;;;;;;12.12;65.55;101274.72;4941613;28;20059;-86
2021/10/25 11:26:53;;;;;;;3.83;2.58;;;;;;;12.10;65.53;101268.63;4924636;29;20055;-85
2021/10/25 11:29:26;;;;;;;4.20;2.45;;;;;;;12.23;65.29;101270.31;4927112;29;20051;-85
2021/10/25 11:32:06;;;;;;;4.40;2.67;;;;;;;12.47;64.73;101267.53;4909291;29;20040;-88
2021/10/25 11:34:41;;;;;;;8.27;3.17;;;;;;;12.70;63.23;101276.13;4910657;29;20461;-85
2021/10/25 11:37:21;;;;;;;2.92;2.17;;;;;;;12.80;62.97;101273.41;4920307;29;20039;-86
2021/10/25 11:40:00;;;;;;;6.40;2.53;;;;;;;12.76;62.76;101269.06;4907238;29;20044;-85
2021/10/25 11:42:32;;;;;;;2.92;2.35;;;;;;;12.77;62.21;101268.19;4922855;29;20051;-85
2021/10/25 11:45:06;;;;;;;4.43;2.15;;;;;;;12.58;62.62;101263.09;4920934;29;20118;-85
2021/10/25 11:47:37;;;;;;;5.53;2.67;;;;;;;12.48;63.25;101264.03;4909095;29;20047;-85
2021/10/25 11:50:11;;;;;;;6.50;2.53;;;;;;;12.39;63.25;101271.06;4905855;29;20129;-85
2021/10/25 11:52:48;;;;;;;2.58;1.92;;;;;;;12.30;63.90;101263.25;4910606;29;20056;-87
2021/10/25 11:55:21;;;;;;;2.72;1.88;;;;;;;12.24;64.54;101258.03;4915791;29;20067;-86
2021/10/25 11:58:13;;;;;;;6.18;2.88;;;;;;;12.25;64.30;101254.53;4916171;29;20052;-86
2021/10/25 12:00:47;;;;;;;3.17;2.53;;;;;;;12.15;64.85;101256.38;4916435;29;20052;-84
2021/10/25 12:03:23;;;;;;;;;;;;;;;12.08;65.39;101250.28;4916603;29;21287;-85
2021/10/25 12:05:51;;;;;;;5.72;2.03;;;;;;;12.14;65.73;101246.75;4903145;29;19931;-86
2021/10/25 12:08:21;;;;;;;3.13;2.20;;;;;;;12.22;65.68;101239.69;4910320;29;20139;-86
2021/10/25 12:10:52;;;;;;;4.93;2.40;;;;;;;12.31;65.79;101243.16;4908588;29;20075;-87
2021/10/25 12:13:19;;;;;;;4.72;2.33;;;;;;;12.39;65.62;101239.56;4915325;29;20119;-86
2021/10/25 12:15:55;;;;;;;4.03;2.10;;;;;;;12.47;65.64;101236.03;4899968;29;20534;-83
2021/10/25 12:18:22;;;;;;;4.07;2.67;;;;;;;12.55;65.33;101231.56;4902856;29;20062;-84
2021/10/25 12:20:50;;;;;;;4.82;2.97;;;;;;;12.66;65.11;101227.13;4919917;29;20060;-85
2021/10/25 12:23:21;;;;;;;6.18;2.25;;;;;;;12.74;64.72;101229.69;4903578;29;20044;-84
2021/10/25 12:26:01;;;;;;;4.50;2.10;;;;;;;12.76;64.84;101216.53;4919539;29;20048;-84
2021/10/25 12:28:29;;;;;;;8.70;3.17;;;;;;;12.75;64.46;101220.91;4921354;29;20039;-84
2021/10/25 12:31:28;;;;;;;3.00;1.80;;;;;;;12.71;63.01;101216.56;4902804;29;20044;-84
2021/10/25 12:34:04;;;;;;;4.38;1.85;;;;;;;12.69;64.27;101211.31;4864540;29;20058;-84
2021/10/25 12:36:40;;;;;;;2.63;1.95;;;;;;;12.65;64.93;101214.88;4920295;29;20916;-84
2021/10/25 12:39:15;;;;;;;2.75;2.55;;;;;;;12.58;65.52;101211.41;4906264;29;20059;-85
2021/10/25 12:42:05;;;;;;;5.47;2.47;;;;;;;12.50;65.39;101212.34;4903718;29;20079;-85
2021/10/25 12:44:36;;;;;;;3.83;2.22;;;;;;;12.39;66.17;101204.56;4905202;29;20451;-85
2021/10/25 12:47:19;;;;;;;2.67;1.85;;;;;;;12.32;66.64;101203.75;4905968;29;20048;-83
2021/10/25 12:49:55;;;;;;;4.80;2.40;;;;;;;12.27;67.04;101212.53;4904752;29;20048;-84
2021/10/25 12:52:28;;;;;;;4.28;3.22;;;;;;;12.24;66.26;101198.56;4924123;29;20150;-86
2021/10/25 12:55:03;;;;;;;7.15;3.65;;;;;;;12.23;67.16;101193.31;4905388;29;20051;-86
2021/10/25 12:57:34;;;;;;;3.15;2.92;;;;;;;12.22;67.45;101191.56;4940119;29;20070;-87
2021/10/25 13:00:15;;;;;;;5.13;3.30;;;;;;;12.21;67.25;101195.06;4919463;29;20056;-86
2021/10/25 13:02:49;;;;;;;4.43;3.17;;;;;;;12.17;67.20;101195.97;4928154;29;20055;-86
2021/10/25 13:05:28;;;;;;;4.28;3.35;;;;;;;12.10;67.49;101189.91;4924127;29;20507;-85